Time;durP1;ratioP1;P1;durP2;ratioP2;P2;SDS_P1;SDS_P2;PMS_P1;PMS_P2;Temp;Humidity;BMP_temperature;BMP_pressure;BME280_temperature;BME280_humidity;BME280_pressure;Samples;Min_cycle;Max_cycle;Signal;HPM_P1;HPM_P2
2022/04/23 00:00:53;;;;;;;13.63;12.33;;;9.30;99.90;;;;;;5115923;28;20488;-70
2022/04/23 00:03:20;;;;;;;13.57;12.17;;;9.30;99.90;;;;;;5115816;28;20459;-70
2022/04/23 00:05:46;;;;;;;14.90;12.73;;;9.20;99.90;;;;;;5115767;28;20452;-70
2022/04/23 00:08:14;;;;;;;13.83;12.43;;;9.20;99.90;;;;;;5115677;28;20464;-70
2022/04/23 00:10:41;;;;;;;15.70;13.67;;;9.20;99.90;;;;;;5115873;28;20448;-70
2022/04/23 00:13:10;;;;;;;15.20;13.13;;;9.20;99.90;;;;;;5115688;28;20456;-69
2022/04/23 00:15:37;;;;;;;15.00;13.40;;;9.10;99.90;;;;;;5115284;28;20488;-70
2022/04/23 00:18:06;;;;;;;15.03;13.57;;;9.10;99.90;;;;;;5098172;28;20855;-71
2022/04/23 00:20:33;;;;;;;16.50;13.20;;;9.10;99.90;;;;;;5115940;28;20790;-70
2022/04/23 00:23:00;;;;;;;14.40;12.90;;;9.10;99.90;;;;;;5116772;28;20456;-70
2022/04/23 00:25:27;;;;;;;15.37;13.43;;;9.10;99.90;;;;;;5115515;28;20933;-70
2022/04/23 00:27:53;;;;;;;15.00;13.20;;;9.10;99.90;;;;;;5115339;28;20452;-70
2022/04/23 00:30:22;;;;;;;14.83;13.43;;;9.10;99.90;;;;;;5115271;28;20474;-71
2022/04/23 00:32:49;;;;;;;15.33;13.73;;;9.10;99.90;;;;;;5115207;28;20530;-70
2022/04/23 00:35:16;;;;;;;14.17;12.80;;;9.10;99.90;;;;;;5115409;28;20786;-71
2022/04/23 00:37:44;;;;;;;16.13;14.40;;;9.10;99.90;;;;;;5115369;28;20788;-71
2022/04/23 00:40:16;;;;;;;16.83;15.23;;;9.10;99.90;;;;;;5114887;28;20956;-71
2022/04/23 00:42:47;;;;;;;16.83;14.83;;;9.00;99.90;;;;;;5114902;28;20445;-70
2022/04/23 00:45:14;;;;;;;15.57;13.97;;;9.00;99.90;;;;;;5115340;28;20517;-70
2022/04/23 00:47:42;;;;;;;16.37;14.67;;;9.00;99.90;;;;;;5115310;28;20472;-69
2022/04/23 00:50:10;;;;;;;16.37;14.73;;;9.00;99.90;;;;;;5115213;28;20783;-70
2022/04/23 00:52:37;;;;;;;14.77;13.27;;;9.00;99.90;;;;;;5115006;28;20869;-71
2022/04/23 00:55:07;;;;;;;15.77;14.13;;;9.00;99.90;;;;;;5114952;28;20484;-71
2022/04/23 00:57:36;;;;;;;16.20;14.60;;;8.90;99.90;;;;;;5115279;28;20437;-70
2022/04/23 01:00:07;;;;;;;15.53;13.90;;;8.90;99.90;;;;;;5115193;28;20480;-70
2022/04/23 01:02:33;;;;;;;16.00;13.70;;;8.90;99.90;;;;;;5114667;28;20486;-70
2022/04/23 01:05:02;;;;;;;15.27;13.70;;;8.90;99.90;;;;;;5115097;28;20555;-70
2022/04/23 01:07:29;;;;;;;16.53;14.83;;;8.80;99.90;;;;;;5114936;28;20463;-70
2022/04/23 01:09:55;;;;;;;15.57;14.07;;;8.80;99.90;;;;;;5114980;28;20459;-70
2022/04/23 01:12:22;;;;;;;16.80;15.00;;;8.80;99.90;;;;;;5114692;28;20456;-70
2022/04/23 01:14:59;;;;;;;17.83;15.70;;;8.70;99.90;;;;;;5114851;28;20783;-71
2022/04/23 01:17:26;;;;;;;20.20;15.17;;;8.70;99.90;;;;;;5114855;28;20453;-70
2022/04/23 01:19:53;;;;;;;23.30;16.20;;;8.70;99.90;;;;;;5114382;28;20995;-70
2022/04/23 01:22:24;;;;;;;19.40;15.30;;;8.60;99.90;;;;;;5114854;28;20468;-71
2022/04/23 01:24:51;;;;;;;16.97;14.07;;;8.60;99.90;;;;;;5114755;28;20456;-69
2022/04/23 01:27:18;;;;;;;17.80;14.57;;;8.60;99.90;;;;;;5115294;28;20491;-70
2022/04/23 01:29:45;;;;;;;17.77;15.80;;;8.50;99.90;;;;;;5114848;28;20475;-69
2022/04/23 01:32:12;;;;;;;17.63;15.83;;;8.50;99.90;;;;;;5114543;28;20464;-70
2022/04/23 01:34:39;;;;;;;15.97;14.27;;;8.50;99.90;;;;;;5114643;28;20456;-70
2022/04/23 01:37:05;;;;;;;18.53;14.43;;;8.50;99.90;;;;;;5114517;28;20453;-70
2022/04/23 01:39:33;;;;;;;17.03;15.27;;;8.40;99.90;;;;;;5114434;28;20492;-70
2022/04/23 01:42:00;;;;;;;17.60;15.80;;;8.40;99.90;;;;;;5114461;28;20463;-71
2022/04/23 01:44:27;;;;;;;16.07;14.37;;;8.40;99.90;;;;;;5114398;28;20457;-71
2022/04/23 01:46:53;;;;;;;16.83;15.10;;;8.40;99.90;;;;;;5114646;28;20452;-71
2022/04/23 01:49:20;;;;;;;16.67;14.27;;;8.40;99.90;;;;;;5114113;28;20467;-71
2022/04/23 01:51:47;;;;;;;16.20;14.60;;;8.40;99.90;;;;;;5114983;28;20786;-71
2022/04/23 01:54:13;;;;;;;15.93;14.33;;;8.30;99.90;;;;;;5115068;28;20463;-71
2022/04/23 01:56:41;;;;;;;18.47;14.83;;;8.30;99.90;;;;;;5118105;28;20802;-71
2022/04/23 01:59:08;;;;;;;17.17;15.47;;;8.30;99.90;;;;;;5118815;28;20521;-71
2022/04/23 02:01:36;;;;;;;16.10;14.50;;;8.30;99.90;;;;;;5118195;28;20472;-70
2022/04/23 02:04:04;;;;;;;16.40;14.73;;;8.30;99.90;;;;;;5117707;28;20979;-71
2022/04/23 02:06:33;;;;;;;16.77;15.07;;;8.30;99.90;;;;;;5118049;28;20475;-69
2022/04/23 02:09:00;;;;;;;17.43;15.63;;;8.30;99.90;;;;;;5118103;28;20456;-70
2022/04/23 02:11:27;;;;;;;17.10;15.33;;;8.30;99.90;;;;;;5118039;28;20448;-70
2022/04/23 02:13:55;;;;;;;16.30;14.70;;;8.30;99.90;;;;;;5117877;28;20467;-70
2022/04/23 02:16:22;;;;;;;15.80;13.80;;;8.30;99.90;;;;;;5117807;28;20483;-70
2022/04/23 02:18:48;;;;;;;17.33;15.50;;;8.20;99.90;;;;;;5117570;28;20520;-70
2022/04/23 02:21:15;;;;;;;18.20;14.23;;;8.20;99.90;;;;;;5117828;28;20491;-69
2022/04/23 02:23:43;;;;;;;15.83;14.27;;;8.20;99.90;;;;;;5117364;28;20456;-70
2022/04/23 02:26:10;;;;;;;16.70;15.00;;;8.20;99.90;;;;;;5117959;28;20841;-68
2022/04/23 02:28:38;;;;;;;18.53;14.17;;;8.20;99.90;;;;;;5117776;28;20452;-70
2022/04/23 02:31:07;;;;;;;17.43;15.67;;;8.20;99.90;;;;;;5117931;28;20448;-70
2022/04/23 02:33:34;;;;;;;16.97;15.27;;;8.20;99.90;;;;;;5117583;28;20456;-70
2022/04/23 02:36:01;;;;;;;17.30;15.10;;;8.20;99.90;;;;;;5117471;28;20916;-70
2022/04/23 02:38:28;;;;;;;16.67;14.83;;;8.20;99.90;;;;;;5117282;28;20467;-70
2022/04/23 02:40:55;;;;;;;16.63;14.90;;;8.20;99.90;;;;;;5117560;28;20945;-70
2022/04/23 02:43:21;;;;;;;17.57;15.53;;;8.10;99.90;;;;;;5117186;28;20460;-70
2022/04/23 02:45:48;;;;;;;17.80;15.90;;;8.10;99.90;;;;;;5117150;28;20959;-70
2022/04/23 02:48:16;;;;;;;16.70;15.07;;;8.10;99.90;;;;;;5117288;28;20453;-70
2022/04/23 02:50:43;;;;;;;17.23;15.43;;;8.10;99.90;;;;;;5116913;28;20457;-70
2022/04/23 02:53:10;;;;;;;17.20;15.47;;;8.10;99.90;;;;;;5117410;28;20773;-70
2022/04/23 02:55:38;;;;;;;16.90;15.27;;;8.10;99.90;;;;;;5116935;28;20488;-70
2022/04/23 02:58:07;;;;;;;14.60;12.03;;;8.10;99.90;;;;;;5117178;28;20467;-70
2022/04/23 03:00:34;;;;;;;16.87;13.93;;;8.10;99.90;;;;;;5117011;28;20809;-70
2022/04/23 03:03:01;;;;;;;17.83;14.50;;;8.10;99.90;;;;;;5117198;28;20457;-70
2022/04/23 03:05:30;;;;;;;16.50;14.80;;;8.10;99.90;;;;;;5116699;28;20464;-70
2022/04/23 03:07:59;;;;;;;16.10;14.40;;;8.10;99.90;;;;;;5116731;28;20796;-70
2022/04/23 03:10:27;;;;;;;16.23;14.40;;;8.00;99.90;;;;;;5116802;28;20449;-70
2022/04/23 03:12:55;;;;;;;16.70;14.90;;;8.00;99.90;;;;;;5117110;28;20476;-70
2022/04/23 03:15:23;;;;;;;19.10;15.17;;;8.00;99.90;;;;;;5116801;28;20513;-70
2022/04/23 03:17:50;;;;;;;18.90;15.60;;;8.00;99.90;;;;;;5116876;28;20498;-70
2022/04/23 03:20:17;;;;;;;16.63;14.93;;;8.00;99.90;;;;;;5116526;28;20487;-69
2022/04/23 03:22:45;;;;;;;17.63;15.80;;;8.00;99.90;;;;;;5116639;28;20551;-70
2022/04/23 03:25:13;;;;;;;16.97;15.17;;;7.90;99.90;;;;;;5117098;28;20467;-69
2022/04/23 03:27:39;;;;;;;18.90;16.20;;;7.90;99.90;;;;;;5116035;28;20456;-70
2022/04/23 03:30:07;;;;;;;16.13;14.43;;;7.90;99.90;;;;;;5116241;28;20468;-70
2022/04/23 03:32:34;;;;;;;16.77;15.07;;;7.90;99.90;;;;;;5116433;28;20464;-70
2022/04/23 03:35:01;;;;;;;17.33;15.53;;;7.90;99.90;;;;;;5116284;28;20479;-69
2022/04/23 03:37:28;;;;;;;18.70;16.57;;;7.90;99.90;;;;;;5116307;28;20897;-70
2022/04/23 03:39:56;;;;;;;17.23;15.53;;;7.90;99.90;;;;;;5115984;28;20485;-69
2022/04/23 03:42:22;;;;;;;16.73;15.03;;;7.90;99.90;;;;;;5116018;28;20524;-69
2022/04/23 03:44:49;;;;;;;17.10;15.20;;;7.90;99.90;;;;;;5116351;28;20462;-70
2022/04/23 03:47:16;;;;;;;17.07;15.17;;;7.80;99.90;;;;;;5116394;28;20471;-70
2022/04/23 03:49:43;;;;;;;16.70;14.80;;;7.80;99.90;;;;;;5116120;28;20539;-70
2022/04/23 03:52:10;;;;;;;17.27;15.50;;;7.80;99.90;;;;;;5115946;28;20452;-70
2022/04/23 03:54:37;;;;;;;18.43;15.30;;;7.80;99.90;;;;;;5116210;28;20448;-69
2022/04/23 03:57:05;;;;;;;17.33;14.37;;;7.80;99.90;;;;;;5116013;28;20465;-69
2022/04/23 03:59:32;;;;;;;16.93;14.40;;;7.80;99.90;;;;;;5115571;28;20927;-70
2022/04/23 04:02:04;;;;;;;16.80;14.33;;;7.70;99.90;;;;;;5115885;28;20492;-69
2022/04/23 04:04:31;;;;;;;17.00;14.80;;;7.70;99.90;;;;;;5115547;28;20451;-70
2022/04/23 04:06:58;;;;;;;17.90;16.00;;;7.70;99.90;;;;;;5115893;28;20452;-69
2022/04/23 04:09:24;;;;;;;17.87;15.83;;;7.70;99.90;;;;;;5115922;28;20464;-69
2022/04/23 04:12:03;;;;;;;18.23;16.20;;;7.70;99.90;;;;;;5115732;28;20954;-70
2022/04/23 04:14:34;;;;;;;19.70;17.57;;;7.70;99.90;;;;;;5116438;28;20441;-70
2022/04/23 04:17:03;;;;;;;17.30;15.43;;;7.70;99.90;;;;;;5116284;28;20441;-70
2022/04/23 04:19:32;;;;;;;21.17;17.03;;;7.60;99.90;;;;;;5116246;28;20460;-70
2022/04/23 04:22:02;;;;;;;18.43;16.40;;;7.60;99.90;;;;;;5115785;28;20559;-70
2022/04/23 04:24:29;;;;;;;17.40;15.60;;;7.50;99.90;;;;;;5115615;28;20555;-69
2022/04/23 04:26:56;;;;;;;16.83;14.43;;;7.50;99.90;;;;;;5115485;28;20452;-70
2022/04/23 04:29:23;;;;;;;17.20;15.37;;;7.40;99.90;;;;;;5115300;28;20558;-69
2022/04/23 04:31:51;;;;;;;19.07;14.50;;;7.40;99.90;;;;;;5114992;28;20457;-69
2022/04/23 04:34:20;;;;;;;17.00;15.20;;;7.40;99.90;;;;;;5115133;28;20461;-69
2022/04/23 04:36:47;;;;;;;19.63;15.20;;;7.40;99.90;;;;;;5115204;28;20456;-69
2022/04/23 04:39:15;;;;;;;20.87;16.40;;;7.40;99.90;;;;;;5116011;28;20456;-69
2022/04/23 04:41:42;;;;;;;21.03;15.43;;;7.40;99.90;;;;;;5115385;28;20549;-69
2022/04/23 04:44:09;;;;;;;15.90;14.20;;;7.40;99.90;;;;;;5115570;28;20457;-70
2022/04/23 04:46:38;;;;;;;16.90;15.20;;;7.40;99.90;;;;;;5114997;28;20456;-70
2022/04/23 04:49:06;;;;;;;17.93;14.23;;;7.40;99.90;;;;;;5115154;28;20471;-70
2022/04/23 04:51:36;;;;;;;16.33;14.63;;;7.40;99.90;;;;;;5115155;28;20991;-70
2022/04/23 04:54:04;;;;;;;19.10;15.37;;;7.40;99.90;;;;;;5115359;28;20495;-70
2022/04/23 04:56:30;;;;;;;17.80;15.33;;;7.40;99.90;;;;;;5114884;28;20811;-70
2022/04/23 04:58:57;;;;;;;16.37;14.20;;;7.50;99.90;;;;;;5115033;28;20456;-70
2022/04/23 05:01:24;;;;;;;17.87;14.90;;;7.50;99.90;;;;;;5114973;28;20500;-70
2022/04/23 05:03:51;;;;;;;17.33;14.73;;;7.50;99.90;;;;;;5115084;28;20475;-70
2022/04/23 05:06:19;;;;;;;18.30;14.80;;;7.50;99.90;;;;;;5114416;28;20521;-70
2022/04/23 05:08:46;;;;;;;16.97;15.13;;;7.60;99.90;;;;;;5115982;28;20818;-69
2022/04/23 05:11:13;;;;;;;16.50;14.77;;;7.60;99.90;;;;;;5115231;28;20456;-69
2022/04/23 05:13:40;;;;;;;19.73;16.50;;;7.60;99.90;;;;;;5115322;28;20460;-69
2022/04/23 05:16:07;;;;;;;17.30;15.50;;;7.70;99.90;;;;;;5115040;28;20471;-69
2022/04/23 05:18:34;;;;;;;18.63;15.30;;;7.70;99.90;;;;;;5114823;28;20463;-69
2022/04/23 05:21:01;;;;;;;20.53;16.57;;;7.70;99.90;;;;;;5114892;28;20589;-69
2022/04/23 05:23:29;;;;;;;17.80;15.33;;;7.70;99.90;;;;;;5114790;28;20463;-69
2022/04/23 05:25:56;;;;;;;17.57;15.40;;;7.80;99.90;;;;;;5114716;28;20483;-69
2022/04/23 05:28:23;;;;;;;16.73;14.93;;;7.80;99.90;;;;;;5114636;28;20787;-69
2022/04/23 05:30:50;;;;;;;17.50;15.60;;;7.80;99.90;;;;;;5117808;28;20451;-69
2022/04/23 05:33:17;;;;;;;17.53;14.80;;;7.80;99.90;;;;;;5118753;28;20452;-69
2022/04/23 05:35:44;;;;;;;16.67;14.70;;;7.80;99.90;;;;;;5118230;28;20463;-69
2022/04/23 05:38:10;;;;;;;17.37;14.50;;;7.90;99.90;;;;;;5118398;28;20921;-69
2022/04/23 05:40:38;;;;;;;17.43;14.90;;;7.90;99.90;;;;;;5118721;28;20464;-69
2022/04/23 05:43:05;;;;;;;31.00;23.37;;;8.00;99.90;;;;;;5118096;28;20448;-69
2022/04/23 05:45:32;;;;;;;56.30;40.10;;;8.10;99.90;;;;;;5118600;28;20795;-69
2022/04/23 05:47:59;;;;;;;37.90;26.73;;;8.20;99.90;;;;;;5118405;28;20468;-69
2022/04/23 05:50:26;;;;;;;17.40;15.00;;;8.30;99.90;;;;;;5118496;28;20460;-69
2022/04/23 05:52:53;;;;;;;18.87;15.20;;;8.40;99.90;;;;;;5118577;28;20456;-70
2022/04/23 05:55:20;;;;;;;15.13;13.30;;;8.50;99.90;;;;;;5118314;28;20974;-69
2022/04/23 05:57:48;;;;;;;16.03;14.03;;;8.60;99.90;;;;;;5118822;28;20791;-70
2022/04/23 06:00:15;;;;;;;14.23;12.73;;;8.70;99.90;;;;;;5118042;28;20456;-69
2022/04/23 06:02:42;;;;;;;15.87;14.17;;;8.90;99.90;;;;;;5118373;28;20509;-70
2022/04/23 06:05:10;;;;;;;15.27;13.67;;;9.00;99.90;;;;;;5118446;28;20783;-70
2022/04/23 06:07:37;;;;;;;14.87;13.27;;;9.10;99.90;;;;;;5118176;28;20464;-70
2022/04/23 06:10:05;;;;;;;17.00;13.70;;;9.10;99.90;;;;;;5118416;28;20529;-70
2022/04/23 06:12:32;;;;;;;16.07;13.93;;;9.20;99.90;;;;;;5118161;28;20456;-69
2022/04/23 06:15:00;;;;;;;14.43;12.30;;;9.30;99.90;;;;;;5118715;28;20513;-69
2022/04/23 06:17:28;;;;;;;12.93;11.80;;;9.40;99.90;;;;;;5118408;28;20467;-70
2022/04/23 06:19:56;;;;;;;14.07;12.63;;;9.50;99.90;;;;;;5118337;28;20772;-70
2022/04/23 06:22:23;;;;;;;15.13;11.63;;;9.50;99.90;;;;;;5119260;28;20480;-69
2022/04/23 06:24:50;;;;;;;13.47;11.60;;;9.60;99.90;;;;;;5118090;28;20958;-69
2022/04/23 06:27:16;;;;;;;17.60;13.70;;;9.70;99.90;;;;;;5118437;28;20804;-70
2022/04/23 06:29:43;;;;;;;12.93;11.60;;;9.70;99.90;;;;;;5118132;28;20460;-70
2022/04/23 06:32:12;;;;;;;13.03;11.37;;;9.80;99.90;;;;;;5118334;28;20459;-69
2022/04/23 06:34:39;;;;;;;16.27;13.23;;;9.90;99.90;;;;;;5118113;28;20460;-69
2022/04/23 06:37:06;;;;;;;13.87;12.47;;;9.90;99.90;;;;;;5117757;28;20460;-69
2022/04/23 06:39:33;;;;;;;15.70;12.73;;;10.00;99.90;;;;;;5117599;28;20460;-68
2022/04/23 06:41:59;;;;;;;19.57;15.53;;;10.10;99.90;;;;;;5116629;28;20948;-69
2022/04/23 06:44:26;;;;;;;13.93;12.50;;;10.10;99.90;;;;;;5117409;28;20457;-69
2022/04/23 06:46:53;;;;;;;12.83;11.60;;;10.30;99.90;;;;;;5117559;28;20460;-70
2022/04/23 06:49:23;;;;;;;12.43;11.00;;;10.40;99.90;;;;;;5116957;28;20917;-69
2022/04/23 06:51:50;;;;;;;12.50;11.30;;;10.50;99.90;;;;;;5117280;28;20453;-69
2022/04/23 06:54:16;;;;;;;11.60;10.40;;;10.50;99.90;;;;;;5116985;28;20461;-70
2022/04/23 06:56:43;;;;;;;14.30;11.90;;;10.50;99.90;;;;;;5116949;28;20848;-69
2022/04/23 06:59:10;;;;;;;11.77;10.57;;;10.60;99.90;;;;;;5116930;28;20463;-69
2022/04/23 07:01:37;;;;;;;12.03;10.83;;;10.70;99.90;;;;;;5117151;28;20484;-69
2022/04/23 07:04:03;;;;;;;11.43;10.33;;;10.80;99.90;;;;;;5116530;28;20913;-69
2022/04/23 07:06:31;;;;;;;12.77;11.47;;;10.80;99.90;;;;;;5117026;28;20522;-69
2022/04/23 07:08:58;;;;;;;11.50;10.23;;;10.90;99.90;;;;;;5117295;28;20920;-69
2022/04/23 07:11:25;;;;;;;12.37;10.67;;;11.00;99.90;;;;;;5117257;28;20459;-69
2022/04/23 07:13:52;;;;;;;11.80;10.60;;;11.00;99.90;;;;;;5117072;28;20457;-68
2022/04/23 07:16:19;;;;;;;12.90;11.40;;;11.10;99.90;;;;;;5116304;28;20936;-70
2022/04/23 07:18:45;;;;;;;12.03;10.53;;;11.20;99.90;;;;;;5116809;28;20457;-69
2022/04/23 07:21:12;;;;;;;28.63;22.50;;;11.20;99.90;;;;;;5116784;28;20467;-69
2022/04/23 07:26:24;;;;;;;12.50;11.20;;;11.40;99.90;;;;;;5116449;28;20448;-70
2022/04/23 07:28:51;;;;;;;13.37;10.93;;;11.50;99.90;;;;;;5116881;28;20463;-70
2022/04/23 07:31:17;;;;;;;13.33;10.40;;;11.60;99.90;;;;;;5116391;28;20456;-69
2022/04/23 07:39:14;;;;;;;11.43;10.30;;;11.70;99.90;;;;;;5116599;28;20520;-70
2022/04/23 07:41:40;;;;;;;10.97;9.93;;;11.70;99.90;;;;;;5116654;28;20480;-69
2022/04/23 07:44:07;;;;;;;10.80;9.77;;;11.80;99.90;;;;;;5116236;28;20464;-69
2022/04/23 07:46:34;;;;;;;48.13;34.73;;;11.80;99.90;;;;;;5116319;28;20536;-69
2022/04/23 07:49:00;;;;;;;13.13;11.20;;;11.90;99.90;;;;;;5116242;28;20456;-69
2022/04/23 07:51:27;;;;;;;11.27;10.10;;;12.00;99.90;;;;;;5115906;28;20485;-69
2022/04/23 07:53:54;;;;;;;12.37;11.10;;;12.10;99.90;;;;;;5115404;28;20921;-70
2022/04/23 07:56:23;;;;;;;12.17;10.57;;;12.10;99.90;;;;;;5115907;28;20492;-70
2022/04/23 07:58:49;;;;;;;12.13;10.87;;;12.10;99.90;;;;;;5116101;28;20915;-70
2022/04/23 08:01:16;;;;;;;11.33;10.23;;;12.20;99.90;;;;;;5115658;28;20495;-69
2022/04/23 08:03:43;;;;;;;13.77;11.93;;;12.20;99.90;;;;;;5115714;28;20452;-69
2022/04/23 08:06:11;;;;;;;11.13;10.03;;;12.30;99.90;;;;;;5116034;28;20457;-69
2022/04/23 08:08:38;;;;;;;10.63;9.60;;;12.40;99.90;;;;;;5116268;28;20468;-70
2022/04/23 08:11:04;;;;;;;12.30;10.10;;;12.40;99.90;;;;;;5115612;28;20802;-68
2022/04/23 08:13:32;;;;;;;11.97;10.80;;;12.50;99.90;;;;;;5116051;28;20778;-69
2022/04/23 08:15:59;;;;;;;11.40;10.20;;;12.60;99.90;;;;;;5116783;28;20793;-70
2022/04/23 08:18:27;;;;;;;11.37;10.20;;;12.60;99.90;;;;;;5117359;28;20464;-69
2022/04/23 08:20:53;;;;;;;10.57;9.43;;;12.70;99.90;;;;;;5115953;28;20543;-70
2022/04/23 08:23:20;;;;;;;11.70;10.60;;;12.80;99.90;;;;;;5115670;28;20490;-70
2022/04/23 08:25:47;;;;;;;13.90;12.60;;;12.80;99.90;;;;;;5115581;28;20458;-70
2022/04/23 08:31:00;;;;;;;11.27;10.10;;;12.90;99.90;;;;;;5115601;28;20424;-68
2022/04/23 08:33:57;;;;;;;10.67;9.67;;;13.00;99.90;;;;;;5115460;28;20452;-70
2022/04/23 08:36:14;;;;;;;10.40;9.30;;;13.10;99.90;;;;;;5114766;28;20459;-70
2022/04/23 08:38:41;;;;;;;10.13;9.13;;;13.20;99.90;;;;;;5115424;28;20465;-69
2022/04/23 08:41:08;;;;;;;9.40;8.50;;;13.40;99.90;;;;;;5115721;28;20468;-69
2022/04/23 08:43:35;;;;;;;11.17;9.40;;;13.50;99.90;;;;;;5115178;28;20488;-70
2022/04/23 08:46:04;;;;;;;9.40;8.47;;;13.60;99.90;;;;;;5114993;28;20460;-70
2022/04/23 08:48:37;;;;;;;9.73;8.73;;;13.70;99.90;;;;;;5115369;28;20486;-70
2022/04/23 08:51:07;;;;;;;9.27;8.47;;;13.80;99.90;;;;;;5115541;28;20883;-71
2022/04/23 08:53:40;;;;;;;8.83;7.93;;;13.90;99.90;;;;;;5115605;28;20476;-70
2022/04/23 08:56:07;;;;;;;10.97;8.77;;;14.00;99.90;;;;;;5115445;28;20492;-71
2022/04/23 08:58:33;;;;;;;8.70;7.80;;;14.10;99.90;;;;;;5114819;28;20889;-71
2022/04/23 09:01:00;;;;;;;12.17;8.97;;;14.10;99.90;;;;;;5114864;28;20769;-71
2022/04/23 09:03:28;;;;;;;8.23;7.43;;;14.30;99.90;;;;;;5116214;28;20481;-70
2022/04/23 09:05:55;;;;;;;7.07;6.40;;;14.40;99.90;;;;;;5119251;28;20452;-70
2022/04/23 09:08:21;;;;;;;8.07;7.37;;;14.60;99.90;;;;;;5119007;28;20468;-70
2022/04/23 09:10:51;;;;;;;7.80;7.00;;;14.70;99.90;;;;;;5119511;28;20467;-70
2022/04/23 09:13:26;;;;;;;6.20;5.60;;;14.80;99.90;;;;;;5119397;28;20459;-69
2022/04/23 09:24:45;;;;;;;6.77;6.17;;;15.40;99.90;;;;;;5118986;28;20428;-69
2022/04/23 09:27:12;;;;;;;6.97;6.37;;;15.40;99.90;;;;;;5119001;28;20440;-69
2022/04/23 09:29:39;;;;;;;7.53;6.70;;;15.40;99.90;;;;;;5118854;28;20452;-70
2022/04/23 09:32:11;;;;;;;9.73;8.77;;;15.50;99.90;;;;;;5119305;28;20463;-69
2022/04/23 09:34:39;;;;;;;7.90;7.20;;;15.50;99.90;;;;;;5119160;28;20456;-70
2022/04/23 09:37:08;;;;;;;6.13;5.63;;;15.50;99.90;;;;;;5118914;28;20484;-70
2022/04/23 09:39:38;;;;;;;6.97;6.33;;;15.60;99.90;;;;;;5120016;28;20547;-71
2022/04/23 09:42:12;;;;;;;6.50;5.90;;;15.70;99.90;;;;;;5118634;28;20508;-69
2022/04/23 09:44:39;;;;;;;17.20;14.10;;;15.70;99.90;;;;;;5118433;28;20479;-70
2022/04/23 09:47:06;;;;;;;6.50;5.90;;;15.80;99.90;;;;;;5118292;28;20483;-70
2022/04/23 09:49:33;;;;;;;6.73;6.03;;;15.90;99.90;;;;;;5119118;28;20467;-71
2022/04/23 09:52:04;;;;;;;6.53;5.93;;;16.00;99.90;;;;;;5117801;28;20464;-70
2022/04/23 09:54:32;;;;;;;6.37;5.77;;;16.10;99.90;;;;;;5117977;28;20440;-70
2022/04/23 09:56:59;;;;;;;7.57;6.10;;;16.20;99.90;;;;;;5117751;28;20494;-70
2022/04/23 09:59:27;;;;;;;6.43;5.83;;;16.30;99.90;;;;;;5118399;28;20470;-69
2022/04/23 10:01:55;;;;;;;6.20;5.70;;;16.40;99.90;;;;;;5118356;28;20768;-71
2022/04/23 10:04:23;;;;;;;6.53;6.00;;;16.50;99.90;;;;;;5118219;28;20773;-70
2022/04/23 10:06:51;;;;;;;5.40;4.90;;;16.50;99.90;;;;;;5118165;28;20466;-71
2022/04/23 10:09:22;;;;;;;6.70;6.00;;;16.70;99.00;;;;;;5117846;28;20539;-70
2022/04/23 10:11:51;;;;;;;6.77;6.17;;;16.80;97.90;;;;;;5117744;28;20974;-70
2022/04/23 10:14:22;;;;;;;6.23;5.73;;;16.80;97.10;;;;;;5118021;28;20462;-70
2022/04/23 10:16:50;;;;;;;6.77;6.17;;;16.90;97.20;;;;;;5117467;28;20751;-70
2022/04/23 10:19:17;;;;;;;5.83;5.27;;;16.90;97.10;;;;;;5117504;28;20463;-70
2022/04/23 10:21:53;;;;;;;5.70;5.20;;;17.00;95.90;;;;;;5117862;28;20452;-70
2022/04/23 10:24:28;;;;;;;6.80;6.17;;;17.10;95.00;;;;;;5117588;28;20848;-69
2022/04/23 10:26:58;;;;;;;7.03;6.33;;;17.10;94.20;;;;;;5117639;28;20509;-70
2022/04/23 10:29:27;;;;;;;6.43;5.87;;;17.10;93.40;;;;;;5118071;28;20820;-70
2022/04/23 10:32:17;;;;;;;15.03;12.80;;;17.10;93.70;;;;;;5117626;28;20513;-70
2022/04/23 10:34:44;;;;;;;6.33;5.83;;;17.20;93.90;;;;;;5117501;28;20467;-70
2022/04/23 10:37:19;;;;;;;6.00;5.50;;;17.30;93.60;;;;;;5117488;28;20496;-70
2022/04/23 10:40:16;;;;;;;5.50;5.10;;;17.40;92.10;;;;;;5118445;28;20453;-69
2022/04/23 10:43:07;;;;;;;5.60;5.10;;;17.50;90.40;;;;;;5117705;28;20549;-71
2022/04/23 10:45:35;;;;;;;6.70;6.10;;;17.50;90.50;;;;;;5117463;28;20456;-70
2022/04/23 10:48:22;;;;;;;6.37;5.77;;;17.50;89.40;;;;;;5117390;28;20448;-70
2022/04/23 10:51:03;;;;;;;8.73;6.20;;;17.30;90.30;;;;;;5117199;28;20472;-71
2022/04/23 10:53:48;;;;;;;15.13;13.50;;;17.20;90.40;;;;;;5117381;28;20437;-70
2022/04/23 10:56:17;;;;;;;6.90;6.20;;;17.30;91.60;;;;;;5116640;28;20480;-70
2022/04/23 10:58:44;;;;;;;6.00;5.50;;;17.40;91.80;;;;;;5117017;28;20901;-71
2022/04/23 11:01:26;;;;;;;5.50;5.07;;;17.60;90.50;;;;;;5116812;28;20468;-71
2022/04/23 11:04:09;;;;;;;6.10;5.60;;;17.80;90.20;;;;;;5117238;28;20544;-70
2022/04/23 11:12:33;;;;;;;6.33;5.73;;;18.20;87.50;;;;;;5091157;28;20588;-71
2022/04/23 11:15:01;;;;;;;5.63;5.13;;;18.30;87.00;;;;;;5116303;28;20501;-70
2022/04/23 11:17:47;;;;;;;5.90;5.40;;;18.40;84.20;;;;;;5116591;28;20456;-72
2022/04/23 11:20:14;;;;;;;6.40;5.80;;;18.60;85.50;;;;;;5117985;28;20436;-70
2022/04/23 11:22:41;;;;;;;5.60;5.10;;;19.10;84.70;;;;;;5116667;28;20480;-70
2022/04/23 11:25:09;;;;;;;4.30;3.90;;;19.90;80.20;;;;;;5116242;28;20460;-70
2022/04/23 11:27:37;;;;;;;5.17;4.77;;;20.90;76.90;;;;;;5116367;28;20465;-70
2022/04/23 11:30:05;;;;;;;5.17;4.77;;;21.90;68.60;;;;;;5116414;28;20457;-70
2022/04/23 11:32:34;;;;;;;21.83;18.80;;;22.80;59.40;;;;;;5116294;28;20484;-70
2022/04/23 11:35:04;;;;;;;5.07;4.67;;;23.00;55.60;;;;;;5116142;28;20467;-70
2022/04/23 11:37:31;;;;;;;4.80;4.50;;;22.60;52.80;;;;;;5117596;28;20498;-70
2022/04/23 11:40:08;;;;;;;5.47;4.97;;;21.70;52.90;;;;;;5116854;28;20539;-71
2022/04/23 11:42:41;;;;;;;10.30;8.60;;;21.40;54.50;;;;;;5116346;28;20464;-71
2022/04/23 11:45:09;;;;;;;5.60;5.20;;;21.50;54.70;;;;;;5116094;28;20464;-70
2022/04/23 11:47:36;;;;;;;5.20;4.70;;;21.50;53.10;;;;;;5116240;28;20463;-70
2022/04/23 11:50:13;;;;;;;4.87;4.47;;;21.50;53.10;;;;;;5115855;28;20552;-70
2022/04/23 11:52:41;;;;;;;5.13;4.73;;;22.10;52.30;;;;;;5115983;28;20456;-70
2022/04/23 11:55:09;;;;;;;6.77;4.93;;;23.00;51.20;;;;;;5115653;28;20503;-70
2022/04/23 11:57:37;;;;;;;4.80;4.40;;;23.50;49.80;;;;;;5116023;28;20473;-71
2022/04/23 12:00:06;;;;;;;5.03;4.63;;;23.60;48.50;;;;;;5115771;28;20548;-70
2022/04/23 12:02:35;;;;;;;5.27;4.67;;;23.80;50.10;;;;;;5115656;28;20784;-70
2022/04/23 12:05:03;;;;;;;5.00;4.60;;;24.40;47.30;;;;;;5116220;28;20759;-71
2022/04/23 12:07:34;;;;;;;4.70;4.30;;;24.70;45.90;;;;;;5115724;28;20456;-71
2022/04/23 12:10:01;;;;;;;5.43;5.03;;;25.10;43.10;;;;;;5115605;28;20529;-70
2022/04/23 12:12:29;;;;;;;5.20;4.80;;;25.20;42.80;;;;;;5115937;28;20518;-71
2022/04/23 12:14:59;;;;;;;4.40;4.10;;;25.30;41.20;;;;;;5115807;28;20460;-71
2022/04/23 12:17:29;;;;;;;15.73;4.73;;;25.40;40.30;;;;;;5115387;28;20555;-70
2022/04/23 12:19:57;;;;;;;5.43;4.97;;;25.10;39.10;;;;;;5115678;28;20440;-70
2022/04/23 12:22:25;;;;;;;5.60;4.43;;;24.40;40.20;;;;;;5115545;28;20449;-71
2022/04/23 12:25:06;;;;;;;4.73;4.43;;;24.20;39.50;;;;;;5115371;28;20482;-71
2022/04/23 12:27:52;;;;;;;4.70;4.30;;;24.50;40.00;;;;;;5115715;28;20448;-70
2022/04/23 12:41:38;;;;;;;6.33;5.73;;;24.10;38.40;;;;;;5115335;28;20424;-70
2022/04/23 12:44:18;;;;;;;4.57;4.17;;;23.80;38.70;;;;;;5115295;28;20535;-70
2022/04/23 12:47:07;;;;;;;5.23;4.73;;;23.60;39.10;;;;;;5114794;28;20463;-70
2022/04/23 12:49:50;;;;;;;4.50;4.20;;;23.80;39.40;;;;;;5109434;28;20452;-70
2022/04/23 12:52:20;;;;;;;4.50;4.10;;;23.80;38.50;;;;;;5115081;28;20489;-71
2022/04/23 12:55:13;;;;;;;4.67;4.27;;;23.70;39.80;;;;;;5115250;28;20449;-71
2022/04/23 12:57:40;;;;;;;4.43;3.80;;;23.80;38.50;;;;;;5115290;28;20441;-70
2022/04/23 13:00:08;;;;;;;4.53;4.13;;;24.10;39.00;;;;;;5114841;28;20487;-71
2022/04/23 13:02:36;;;;;;;4.43;4.13;;;25.00;39.10;;;;;;5114817;28;20551;-70
2022/04/23 13:05:06;;;;;;;4.63;4.10;;;26.20;38.20;;;;;;5114726;28;20885;-70
2022/04/23 13:10:18;;;;;;;4.00;3.70;;;26.90;34.10;;;;;;5115046;28;20432;-71
2022/04/23 13:12:44;;;;;;;4.53;4.23;;;26.90;33.40;;;;;;5114839;28;20476;-70
2022/04/23 13:15:11;;;;;;;5.57;5.03;;;27.30;33.00;;;;;;5114513;28;20480;-72
2022/04/23 13:17:39;;;;;;;4.93;4.10;;;27.90;32.30;;;;;;5114834;28;20472;-70
2022/04/23 13:20:10;;;;;;;4.30;3.90;;;28.40;32.60;;;;;;5114566;28;20653;-71
2022/04/23 13:22:37;;;;;;;4.33;4.00;;;29.10;33.20;;;;;;5114463;28;20529;-70
2022/04/23 13:25:04;;;;;;;4.30;3.57;;;29.50;29.40;;;;;;5114442;28;20506;-71